Mc Millan, Oklahoma
Current Conditions -  °F | °C
As of 5:15 AM on Sunday 23 Nov 2014 (Local Time) from K1F0 Reporting Station
Haze Haze  
Wind Chill: 54°   Ceiling: 200
Heat Index: 54°   Visibility: 3mi
Dew Point: 54°   Wind: 5mph
Humidity: 100%   Direction: 170°S
Pressure: 29.57"   Gusts: NA
Location:  34.0704°N, 96.7931°W
Report Text: K1F0 231115Z AUTO 17004KT 3SM BR BKN002 12/12 A2957 RMK AO2
Loading
Personal Weather Stations






























Interactive Weather Map New forecast layout! Learn more

10-Day Weather Forecast

Advertisements
Track Severe Weather on mobile